Terminal Aerodrome Forecast
Issued by NWS

Home | Current Version | Previous Version | Graphics & Text | Print | Product List | Glossary On
Versions: 1 2 3 4 5 6 7 8 9 10 11 12 13 14 15 16 17 18 19 20 21 22 23 24 25 26 27 28 29 30 31 32 33 34 35 36 37 38 39 40 41 42 43 44 45
000
FTUS43 KGRB 252300
TAFRHI
TAF
KRHI 252320Z 2600/2624 21005KT 6SM BR SCT008 OVC012
      TEMPO 2600/2604 4SM -SN BR BKN008
     FM260400 11003KT 5SM BR OVC006
      TEMPO 2604/2608 3SM -SN BR
     FM260800 VRB03KT 3SM -FZDZSN BR OVC003
     FM261600 04005KT 5SM BR OVC004=

USA.gov is the U.S. government's official web portal to all federal, state and local government web resources and services.